Time;durP1;ratioP1;P1;durP2;ratioP2;P2;SDS_P1;SDS_P2;PMS_P1;PMS_P2;Temp;Humidity;BMP_temperature;BMP_pressure;BME280_temperature;BME280_humidity;BME280_pressure;Samples;Min_cycle;Max_cycle;Signal;HPM_P1;HPM_P2
2021/01/31 00:00:48;;;;;;;16.63;10.45;;;;;;;;;;5139533;27;20282;-74
2021/01/31 00:03:18;;;;;;;22.73;12.70;;;;;;;;;;5139190;27;20208;-73
2021/01/31 00:05:45;;;;;;;19.20;9.20;;;;;;;;;;5138930;27;20224;-73
2021/01/31 00:08:14;;;;;;;12.82;7.68;;;;;;;;;;5139282;27;20197;-73
2021/01/31 00:10:42;;;;;;;16.25;9.13;;;;;;;;;;5139758;27;20248;-73
2021/01/31 00:13:09;;;;;;;15.38;8.70;;;;;;;;;;5139454;27;20215;-74
2021/01/31 00:15:38;;;;;;;24.20;11.32;;;;;;;;;;5139090;27;20788;-73
2021/01/31 00:18:06;;;;;;;19.38;9.15;;;;;;;;;;5139903;27;20265;-73
2021/01/31 00:20:35;;;;;;;19.02;8.95;;;;;;;;;;5139107;27;20228;-74
2021/01/31 00:23:02;;;;;;;18.17;9.25;;;;;;;;;;5138979;27;20213;-74
2021/01/31 00:25:29;;;;;;;15.93;8.73;;;;;;;;;;5139302;27;20616;-74
2021/01/31 00:27:57;;;;;;;12.13;7.65;;;;;;;;;;5139290;27;20213;-73
2021/01/31 00:30:26;;;;;;;12.77;8.88;;;;;;;;;;5138917;27;20219;-73
2021/01/31 00:32:54;;;;;;;17.13;9.07;;;;;;;;;;5140026;27;20204;-73
2021/01/31 00:35:22;;;;;;;22.98;8.32;;;;;;;;;;5138487;27;20259;-73
2021/01/31 00:37:49;;;;;;;19.55;8.93;;;;;;;;;;5138815;27;20496;-73
2021/01/31 00:40:17;;;;;;;18.67;9.40;;;;;;;;;;5138981;27;20505;-73
2021/01/31 00:42:44;;;;;;;19.65;8.80;;;;;;;;;;5138811;27;20265;-72
2021/01/31 00:45:36;;;;;;;19.23;9.85;;;;;;;;;;5140325;27;20204;-73
2021/01/31 00:48:16;;;;;;;16.48;7.30;;;;;;;;;;5138660;27;20208;-72
2021/01/31 00:50:44;;;;;;;12.80;6.90;;;;;;;;;;5138490;27;20239;-73
2021/01/31 00:53:15;;;;;;;15.95;8.63;;;;;;;;;;5137673;27;20287;-73
2021/01/31 00:55:43;;;;;;;17.23;9.07;;;;;;;;;;5139245;27;20208;-72
2021/01/31 00:58:10;;;;;;;15.27;9.20;;;;;;;;;;5138185;27;20300;-72
2021/01/31 01:00:39;;;;;;;17.27;6.95;;;;;;;;;;5137796;27;20224;-72
2021/01/31 01:03:07;;;;;;;13.30;7.65;;;;;;;;;;5138230;27;20267;-73
2021/01/31 01:05:35;;;;;;;21.92;10.15;;;;;;;;;;5138009;27;20204;-73
2021/01/31 01:08:02;;;;;;;13.38;6.90;;;;;;;;;;5137686;27;20205;-75
2021/01/31 01:10:30;;;;;;;14.85;8.43;;;;;;;;;;5137970;27;20209;-73
2021/01/31 01:12:57;;;;;;;13.82;7.40;;;;;;;;;;5137973;27;20476;-73
2021/01/31 01:15:26;;;;;;;21.70;9.45;;;;;;;;;;5137938;27;20573;-73
2021/01/31 01:17:53;;;;;;;20.45;9.88;;;;;;;;;;5139145;27;20208;-73
2021/01/31 01:20:21;;;;;;;19.10;9.02;;;;;;;;;;5139121;27;20478;-74
2021/01/31 01:22:51;;;;;;;15.48;8.63;;;;;;;;;;5135899;27;20251;-71
2021/01/31 01:25:21;;;;;;;21.50;12.15;;;;;;;;;;5116693;27;20205;-73
2021/01/31 01:27:53;;;;;;;17.85;10.27;;;;;;;;;;5114110;27;20202;-73
2021/01/31 01:30:22;;;;;;;19.02;8.63;;;;;;;;;;5116250;27;20212;-71
2021/01/31 01:32:49;;;;;;;14.60;8.63;;;;;;;;;;5116606;27;20201;-73
2021/01/31 01:35:16;;;;;;;19.17;8.95;;;;;;;;;;5117656;27;20645;-73
2021/01/31 01:37:44;;;;;;;17.27;8.98;;;;;;;;;;5116795;27;20476;-72
2021/01/31 01:40:19;;;;;;;14.05;7.25;;;;;;;;;;5116532;27;20240;-72
2021/01/31 01:42:46;;;;;;;19.88;8.90;;;;;;;;;;5116832;27;20208;-73
2021/01/31 01:45:14;;;;;;;13.40;7.13;;;;;;;;;;5117117;27;20217;-73
2021/01/31 01:47:41;;;;;;;13.93;7.68;;;;;;;;;;5117426;27;20467;-72
2021/01/31 01:50:12;;;;;;;32.63;8.95;;;;;;;;;;5117141;27;20223;-72
2021/01/31 01:52:41;;;;;;;16.48;6.70;;;;;;;;;;5116747;27;20216;-73
2021/01/31 01:55:11;;;;;;;19.77;8.82;;;;;;;;;;5117078;27;20205;-73
2021/01/31 01:57:41;;;;;;;21.35;9.05;;;;;;;;;;5116780;27;20221;-72
2021/01/31 02:00:09;;;;;;;13.82;8.45;;;;;;;;;;5116861;27;20229;-73
2021/01/31 02:02:38;;;;;;;16.88;9.15;;;;;;;;;;5120322;27;20254;-72
2021/01/31 02:05:07;;;;;;;18.50;8.82;;;;;;;;;;5121960;27;20238;-73
2021/01/31 02:07:35;;;;;;;21.25;8.63;;;;;;;;;;5120540;27;20197;-73
2021/01/31 02:10:02;;;;;;;22.08;10.15;;;;;;;;;;5120720;27;20197;-73
2021/01/31 02:12:30;;;;;;;23.10;9.45;;;;;;;;;;5120530;27;20304;-73
2021/01/31 02:15:00;;;;;;;16.52;8.38;;;;;;;;;;5120305;27;20282;-73
2021/01/31 02:17:29;;;;;;;17.65;6.00;;;;;;;;;;5120392;27;20217;-72
2021/01/31 02:20:15;;;;;;;16.88;7.50;;;;;;;;;;5120239;27;20335;-73
2021/01/31 02:23:04;;;;;;;14.80;6.90;;;;;;;;;;5119931;27;20675;-73
2021/01/31 02:25:48;;;;;;;15.52;7.10;;;;;;;;;;5094971;27;20194;-72
2021/01/31 02:28:27;;;;;;;14.45;8.07;;;;;;;;;;5106112;27;20247;-72
2021/01/31 02:31:07;;;;;;;23.70;7.82;;;;;;;;;;5119984;27;20223;-72
2021/01/31 02:33:42;;;;;;;13.25;6.22;;;;;;;;;;5120076;27;20437;-72
2021/01/31 02:36:10;;;;;;;13.30;5.80;;;;;;;;;;5119618;27;20205;-72
2021/01/31 02:38:46;;;;;;;15.63;7.75;;;;;;;;;;5120145;27;20226;-72
2021/01/31 02:41:15;;;;;;;17.13;8.52;;;;;;;;;;5119491;27;20244;-72
2021/01/31 02:43:43;;;;;;;16.20;9.25;;;;;;;;;;5118946;27;20469;-72
2021/01/31 02:46:16;;;;;;;14.63;8.50;;;;;;;;;;5119980;27;20586;-72
2021/01/31 02:48:46;;;;;;;13.40;6.68;;;;;;;;;;5120443;27;20200;-72
2021/01/31 02:51:16;;;;;;;14.95;5.05;;;;;;;;;;5119374;27;20312;-72
2021/01/31 02:53:46;;;;;;;19.50;8.88;;;;;;;;;;5119452;27;20594;-72
2021/01/31 02:56:16;;;;;;;13.07;6.68;;;;;;;;;;5119380;27;20206;-72
2021/01/31 02:58:47;;;;;;;17.42;7.22;;;;;;;;;;5120237;27;20216;-72
2021/01/31 03:01:16;;;;;;;20.50;9.10;;;;;;;;;;5119748;27;20236;-72
2021/01/31 03:03:45;;;;;;;11.60;7.43;;;;;;;;;;5119688;27;20197;-72
2021/01/31 03:06:14;;;;;;;16.42;7.13;;;;;;;;;;5119710;27;20210;-72
2021/01/31 03:08:43;;;;;;;11.43;6.35;;;;;;;;;;5119175;27;20209;-72
2021/01/31 03:11:12;;;;;;;12.40;6.60;;;;;;;;;;5119319;27;20219;-72
2021/01/31 03:13:41;;;;;;;24.50;7.15;;;;;;;;;;5119479;27;20453;-72
2021/01/31 03:16:11;;;;;;;17.98;6.40;;;;;;;;;;5119585;27;20201;-72
2021/01/31 03:18:39;;;;;;;14.63;8.05;;;;;;;;;;5119300;27;20497;-72
2021/01/31 03:21:11;;;;;;;12.52;6.60;;;;;;;;;;5118955;27;20221;-72
2021/01/31 03:23:40;;;;;;;14.30;6.45;;;;;;;;;;5119510;27;20206;-72
2021/01/31 03:26:18;;;;;;;11.10;6.30;;;;;;;;;;5119968;27;20457;-72
2021/01/31 03:28:45;;;;;;;15.75;6.55;;;;;;;;;;5119261;27;20358;-72
2021/01/31 03:31:13;;;;;;;20.08;6.82;;;;;;;;;;5119499;27;20269;-72
2021/01/31 03:33:43;;;;;;;6.88;3.78;;;;;;;;;;5119199;27;20216;-72
2021/01/31 03:36:11;;;;;;;10.25;6.57;;;;;;;;;;5119179;27;20611;-72
2021/01/31 03:38:39;;;;;;;12.55;6.38;;;;;;;;;;5119623;27;20216;-72
2021/01/31 03:41:07;;;;;;;13.73;5.15;;;;;;;;;;5118906;27;20233;-72
2021/01/31 03:43:34;;;;;;;12.88;6.20;;;;;;;;;;5119016;27;20213;-72
2021/01/31 03:46:06;;;;;;;16.42;8.05;;;;;;;;;;5119323;27;20209;-72
2021/01/31 03:48:35;;;;;;;14.50;7.63;;;;;;;;;;5118825;27;20643;-71
2021/01/31 03:51:03;;;;;;;13.98;6.47;;;;;;;;;;5119339;27;20201;-71
2021/01/31 03:53:31;;;;;;;10.63;6.93;;;;;;;;;;5119278;27;20209;-72
2021/01/31 03:55:58;;;;;;;11.35;5.25;;;;;;;;;;5118839;27;20582;-72
2021/01/31 03:58:28;;;;;;;15.60;7.65;;;;;;;;;;5119266;27;20205;-71
2021/01/31 04:00:58;;;;;;;14.27;8.18;;;;;;;;;;5118651;27;20229;-72
2021/01/31 04:03:28;;;;;;;13.68;6.63;;;;;;;;;;5118763;27;20270;-72
2021/01/31 04:05:57;;;;;;;10.15;5.20;;;;;;;;;;5118678;27;20201;-72
2021/01/31 04:08:27;;;;;;;15.45;6.65;;;;;;;;;;5119148;27;20245;-72
2021/01/31 04:11:03;;;;;;;14.00;6.22;;;;;;;;;;5119149;27;20217;-72
2021/01/31 04:13:39;;;;;;;8.80;3.75;;;;;;;;;;5118325;27;20291;-72
2021/01/31 04:16:08;;;;;;;11.55;5.47;;;;;;;;;;5118945;27;20252;-72
2021/01/31 04:18:35;;;;;;;11.75;5.78;;;;;;;;;;5118318;27;20205;-71
2021/01/31 04:21:02;;;;;;;8.77;4.40;;;;;;;;;;5118359;27;20233;-72
2021/01/31 04:23:29;;;;;;;11.73;5.35;;;;;;;;;;5117161;27;20449;-72
2021/01/31 04:25:57;;;;;;;13.30;6.03;;;;;;;;;;5118473;27;20206;-72
2021/01/31 04:28:25;;;;;;;14.48;7.68;;;;;;;;;;5118128;27;20206;-72
2021/01/31 04:30:55;;;;;;;14.88;7.38;;;;;;;;;;5117861;27;20216;-72
2021/01/31 04:33:22;;;;;;;10.77;5.57;;;;;;;;;;5118309;27;20209;-72
2021/01/31 04:35:52;;;;;;;8.82;4.90;;;;;;;;;;5118081;27;20244;-72
2021/01/31 04:38:19;;;;;;;14.00;5.93;;;;;;;;;;5117676;27;20619;-71
2021/01/31 04:40:46;;;;;;;14.00;7.07;;;;;;;;;;5117887;27;20243;-72
2021/01/31 04:43:17;;;;;;;14.63;6.68;;;;;;;;;;5117957;27;20582;-72
2021/01/31 04:45:44;;;;;;;15.65;7.40;;;;;;;;;;5117978;27;20205;-72
2021/01/31 04:48:24;;;;;;;11.05;4.80;;;;;;;;;;5116754;27;20683;-71
2021/01/31 04:50:58;;;;;;;9.27;5.38;;;;;;;;;;5117889;27;20213;-72
2021/01/31 04:53:34;;;;;;;7.78;4.88;;;;;;;;;;5118397;27;20205;-72
2021/01/31 04:56:07;;;;;;;18.80;8.65;;;;;;;;;;5118211;27;20693;-72
2021/01/31 04:58:37;;;;;;;9.70;4.78;;;;;;;;;;5117918;27;20209;-72
2021/01/31 05:01:06;;;;;;;11.30;5.80;;;;;;;;;;5118210;27;20225;-72
2021/01/31 05:03:35;;;;;;;11.95;5.57;;;;;;;;;;5118798;27;20234;-72
2021/01/31 05:06:06;;;;;;;10.70;6.00;;;;;;;;;;5117778;27;20206;-72
2021/01/31 05:08:36;;;;;;;15.10;5.90;;;;;;;;;;5118731;27;20490;-72
2021/01/31 05:11:11;;;;;;;8.27;4.07;;;;;;;;;;5118083;27;20494;-72
2021/01/31 05:13:43;;;;;;;12.43;6.70;;;;;;;;;;5117982;27;20209;-72
2021/01/31 05:16:12;;;;;;;9.05;5.15;;;;;;;;;;5118262;27;20225;-72
2021/01/31 05:18:40;;;;;;;11.15;5.65;;;;;;;;;;5119040;27;20742;-72
2021/01/31 05:21:08;;;;;;;8.52;4.43;;;;;;;;;;5117399;27;20692;-72
2021/01/31 05:23:37;;;;;;;12.25;6.07;;;;;;;;;;5117733;27;20214;-72
2021/01/31 05:26:05;;;;;;;14.18;7.78;;;;;;;;;;5117431;27;20213;-72
2021/01/31 05:28:33;;;;;;;12.82;6.38;;;;;;;;;;5117981;27;20462;-72
2021/01/31 05:31:01;;;;;;;13.43;6.57;;;;;;;;;;5117744;27;20217;-72
2021/01/31 05:33:29;;;;;;;10.95;5.90;;;;;;;;;;5116857;27;20655;-72
2021/01/31 05:36:13;;;;;;;12.43;5.78;;;;;;;;;;5116972;27;20205;-72
2021/01/31 05:38:41;;;;;;;11.32;5.60;;;;;;;;;;5117636;27;20581;-72
2021/01/31 05:41:26;;;;;;;9.02;4.97;;;;;;;;;;5118321;27;20225;-72
2021/01/31 05:43:57;;;;;;;11.45;5.63;;;;;;;;;;5116645;27;20208;-72
2021/01/31 05:46:26;;;;;;;10.63;5.35;;;;;;;;;;5117741;27;20236;-72
2021/01/31 05:48:53;;;;;;;10.35;5.43;;;;;;;;;;5116321;27;20349;-72
2021/01/31 05:51:20;;;;;;;11.30;5.22;;;;;;;;;;5117670;27;20244;-73
2021/01/31 05:53:47;;;;;;;15.43;6.65;;;;;;;;;;5117389;27;20209;-72
2021/01/31 05:56:16;;;;;;;15.35;6.65;;;;;;;;;;5117430;27;20212;-73
2021/01/31 05:58:43;;;;;;;12.95;5.60;;;;;;;;;;5117339;27;20228;-72
2021/01/31 06:01:11;;;;;;;8.02;4.97;;;;;;;;;;5117477;27;20225;-72
2021/01/31 06:03:39;;;;;;;8.30;3.95;;;;;;;;;;5117817;27;20209;-72
2021/01/31 06:06:10;;;;;;;10.38;3.88;;;;;;;;;;5117131;27;20201;-72
2021/01/31 06:08:38;;;;;;;8.35;4.88;;;;;;;;;;5117228;27;20213;-72
2021/01/31 06:11:06;;;;;;;14.75;4.43;;;;;;;;;;5117279;27;20670;-73
2021/01/31 06:13:34;;;;;;;10.27;4.63;;;;;;;;;;5117379;27;20216;-72
2021/01/31 06:16:02;;;;;;;7.70;3.20;;;;;;;;;;5116754;27;20674;-72
2021/01/31 06:18:33;;;;;;;8.10;5.00;;;;;;;;;;5116871;27;20228;-73
2021/01/31 06:21:10;;;;;;;9.13;4.78;;;;;;;;;;5116899;27;20221;-70
2021/01/31 06:23:41;;;;;;;8.35;5.45;;;;;;;;;;5117027;27;20458;-72
2021/01/31 06:26:08;;;;;;;9.38;4.25;;;;;;;;;;5117514;27;20213;-72
2021/01/31 06:28:44;;;;;;;9.45;4.47;;;;;;;;;;5117149;27;20466;-72
2021/01/31 06:31:19;;;;;;;10.48;5.65;;;;;;;;;;5116984;27;20672;-72
2021/01/31 06:33:46;;;;;;;9.90;4.35;;;;;;;;;;5116780;27;20205;-72
2021/01/31 06:36:25;;;;;;;11.50;5.40;;;;;;;;;;5116717;27;20216;-72
2021/01/31 06:39:00;;;;;;;9.70;4.57;;;;;;;;;;5116271;27;20213;-72
2021/01/31 06:41:44;;;;;;;11.18;4.28;;;;;;;;;;5116191;27;20648;-73
2021/01/31 06:44:16;;;;;;;7.28;4.93;;;;;;;;;;5118152;27;20236;-72
2021/01/31 06:46:45;;;;;;;8.23;3.90;;;;;;;;;;5116875;27;20261;-72
2021/01/31 06:49:17;;;;;;;9.60;3.80;;;;;;;;;;5120064;27;20210;-72
2021/01/31 06:51:56;;;;;;;8.43;4.45;;;;;;;;;;5119337;27;20494;-72
2021/01/31 06:54:42;;;;;;;9.25;5.15;;;;;;;;;;5119958;27;20218;-72
2021/01/31 06:57:28;;;;;;;8.38;4.38;;;;;;;;;;5119844;27;20330;-72
2021/01/31 07:00:04;;;;;;;11.95;5.07;;;;;;;;;;5121119;27;20285;-72
2021/01/31 07:02:50;;;;;;;13.65;3.92;;;;;;;;;;5119997;27;20619;-72
2021/01/31 07:05:33;;;;;;;7.70;3.10;;;;;;;;;;5119842;27;20205;-72
2021/01/31 07:08:16;;;;;;;6.05;3.05;;;;;;;;;;5119088;27;20323;-72
2021/01/31 07:10:50;;;;;;;6.38;3.90;;;;;;;;;;5119864;27;20220;-71
2021/01/31 07:13:23;;;;;;;9.38;4.13;;;;;;;;;;5119603;27;20210;-72
2021/01/31 07:15:54;;;;;;;8.30;3.60;;;;;;;;;;5119489;27;20439;-71
2021/01/31 07:18:23;;;;;;;9.82;5.25;;;;;;;;;;5119169;27;20205;-72
2021/01/31 07:20:53;;;;;;;9.40;4.55;;;;;;;;;;5119609;27;20236;-71
2021/01/31 07:23:24;;;;;;;8.38;4.78;;;;;;;;;;5119056;27;20205;-72
2021/01/31 07:25:56;;;;;;;12.75;5.18;;;;;;;;;;5119053;27;20212;-71
2021/01/31 07:28:25;;;;;;;8.85;3.85;;;;;;;;;;5119084;27;20252;-71
2021/01/31 07:30:55;;;;;;;7.15;4.22;;;;;;;;;;5118579;27;20217;-72
2021/01/31 07:33:26;;;;;;;11.32;5.53;;;;;;;;;;5118863;27;20209;-73
2021/01/31 07:35:58;;;;;;;12.55;5.00;;;;;;;;;;5119101;27;20209;-72
2021/01/31 07:38:29;;;;;;;11.25;6.47;;;;;;;;;;5119124;27;20240;-72
2021/01/31 07:41:00;;;;;;;11.15;4.55;;;;;;;;;;5118542;27;20229;-72
2021/01/31 07:43:29;;;;;;;10.00;4.88;;;;;;;;;;5118962;27;20217;-70
2021/01/31 07:46:01;;;;;;;13.05;5.75;;;;;;;;;;5118685;27;20476;-72
2021/01/31 07:48:29;;;;;;;8.05;5.50;;;;;;;;;;5119007;27;20220;-72
2021/01/31 07:50:58;;;;;;;11.02;5.75;;;;;;;;;;5118907;27;20236;-72
2021/01/31 07:53:28;;;;;;;10.65;4.85;;;;;;;;;;5120089;27;20205;-72
2021/01/31 07:55:55;;;;;;;8.77;4.47;;;;;;;;;;5118781;27;20206;-72
2021/01/31 07:58:40;;;;;;;15.27;6.57;;;;;;;;;;5118752;27;20209;-72
2021/01/31 08:01:36;;;;;;;13.60;6.72;;;;;;;;;;5118258;27;20286;-72
2021/01/31 08:04:22;;;;;;;10.40;5.40;;;;;;;;;;5117396;27;20559;-72
2021/01/31 08:06:51;;;;;;;14.70;7.15;;;;;;;;;;5118700;27;20569;-72
2021/01/31 08:09:36;;;;;;;10.48;6.00;;;;;;;;;;5118751;27;20224;-72
2021/01/31 08:12:05;;;;;;;10.65;6.82;;;;;;;;;;5118059;27;20198;-72
2021/01/31 08:14:51;;;;;;;13.23;5.75;;;;;;;;;;5118290;27;20209;-72
2021/01/31 08:17:33;;;;;;;14.40;7.10;;;;;;;;;;5117929;27;20213;-73
2021/01/31 08:20:15;;;;;;;17.05;8.32;;;;;;;;;;5101298;27;20221;-73
2021/01/31 08:22:42;;;;;;;11.73;6.40;;;;;;;;;;5118135;27;20248;-73
2021/01/31 08:25:24;;;;;;;12.95;8.18;;;;;;;;;;5118219;27;20212;-72
2021/01/31 08:27:57;;;;;;;15.93;6.90;;;;;;;;;;5114946;27;20211;-72
2021/01/31 08:30:31;;;;;;;13.25;7.30;;;;;;;;;;5116832;27;20209;-72
2021/01/31 08:33:13;;;;;;;13.07;7.22;;;;;;;;;;5118469;27;20255;-72
2021/01/31 08:35:55;;;;;;;10.98;6.13;;;;;;;;;;5118442;27;20205;-72
2021/01/31 08:38:31;;;;;;;14.77;7.00;;;;;;;;;;5118585;27;20213;-72
2021/01/31 08:41:17;;;;;;;14.55;7.57;;;;;;;;;;5117804;27;20597;-72
2021/01/31 08:43:47;;;;;;;14.27;7.95;;;;;;;;;;5117629;27;20204;-72
2021/01/31 08:46:16;;;;;;;12.75;7.43;;;;;;;;;;5117628;27;20213;-75
2021/01/31 08:48:49;;;;;;;12.35;6.60;;;;;;;;;;5117562;27;20314;-72
2021/01/31 08:51:18;;;;;;;12.93;6.30;;;;;;;;;;5117533;27;20209;-72
2021/01/31 08:53:45;;;;;;;16.38;7.75;;;;;;;;;;5117118;27;20220;-73
2021/01/31 08:56:13;;;;;;;15.95;8.20;;;;;;;;;;5116975;27;20430;-74
2021/01/31 08:58:42;;;;;;;16.05;8.27;;;;;;;;;;5117294;27;20205;-73
2021/01/31 09:01:12;;;;;;;13.40;7.75;;;;;;;;;;5116637;27;20390;-73
2021/01/31 09:03:41;;;;;;;16.65;7.88;;;;;;;;;;5117897;27;20483;-73
2021/01/31 09:06:12;;;;;;;15.40;7.57;;;;;;;;;;5116813;27;20236;-74
2021/01/31 09:08:42;;;;;;;15.07;8.50;;;;;;;;;;5116893;27;20296;-74
2021/01/31 09:11:12;;;;;;;12.82;8.20;;;;;;;;;;5118218;27;20220;-73
2021/01/31 09:13:40;;;;;;;15.68;8.95;;;;;;;;;;5117329;27;20209;-72
2021/01/31 09:16:14;;;;;;;15.15;7.47;;;;;;;;;;5119207;27;20482;-74
2021/01/31 09:18:41;;;;;;;12.73;6.82;;;;;;;;;;5119017;27;20219;-73
2021/01/31 09:21:25;;;;;;;12.05;6.95;;;;;;;;;;5116949;27;20527;-73
2021/01/31 09:23:55;;;;;;;14.13;8.23;;;;;;;;;;5116855;27;20604;-73
2021/01/31 09:26:22;;;;;;;16.10;7.65;;;;;;;;;;5117127;27;20562;-73
2021/01/31 09:28:52;;;;;;;13.80;7.72;;;;;;;;;;5115396;27;20213;-73
2021/01/31 09:31:20;;;;;;;14.55;8.57;;;;;;;;;;5117704;27;20217;-73
2021/01/31 09:33:53;;;;;;;15.70;8.02;;;;;;;;;;5116484;27;20623;-73
2021/01/31 09:36:22;;;;;;;13.10;8.35;;;;;;;;;;5116662;27;20303;-72
2021/01/31 09:38:50;;;;;;;16.63;7.70;;;;;;;;;;5117142;27;20266;-72
2021/01/31 09:41:17;;;;;;;11.80;7.00;;;;;;;;;;5116336;27;20931;-72
2021/01/31 09:43:46;;;;;;;13.47;7.73;;;;;;;;;;5115097;27;20258;-72
2021/01/31 09:46:15;;;;;;;11.60;8.02;;;;;;;;;;5117294;27;20536;-72
2021/01/31 09:48:43;;;;;;;16.37;8.40;;;;;;;;;;5117382;27;20214;-72
2021/01/31 09:51:17;;;;;;;11.73;7.13;;;;;;;;;;5115955;27;20471;-71
2021/01/31 09:53:44;;;;;;;13.65;6.88;;;;;;;;;;5116919;27;20543;-73
2021/01/31 09:56:13;;;;;;;7.15;5.85;;;;;;;;;;5115419;27;20205;-73
2021/01/31 09:58:44;;;;;;;11.37;7.70;;;;;;;;;;5116530;27;20204;-71
2021/01/31 10:01:12;;;;;;;12.45;6.63;;;;;;;;;;5116290;27;20753;-73
2021/01/31 10:03:39;;;;;;;13.97;7.30;;;;;;;;;;5115828;27;20213;-72
2021/01/31 10:06:10;;;;;;;13.43;7.27;;;;;;;;;;5116352;27;20462;-72
2021/01/31 10:08:38;;;;;;;4.35;3.22;;;;;;;;;;5115909;27;20463;-71
2021/01/31 10:11:23;;;;;;;9.77;6.47;;;;;;;;;;5116589;27;20468;-72
2021/01/31 10:13:50;;;;;;;11.77;7.10;;;;;;;;;;5116174;27;20549;-74
2021/01/31 10:16:18;;;;;;;13.63;6.47;;;;;;;;;;5116197;27;20467;-73
2021/01/31 10:18:46;;;;;;;12.65;6.35;;;;;;;;;;5116773;27;20537;-74
2021/01/31 10:21:15;;;;;;;10.30;6.67;;;;;;;;;;5117015;27;20225;-72
2021/01/31 10:23:42;;;;;;;10.97;6.17;;;;;;;;;;5119821;27;20491;-73
2021/01/31 10:26:13;;;;;;;11.67;6.67;;;;;;;;;;5120135;27;20460;-72
2021/01/31 10:28:45;;;;;;;10.50;6.30;;;;;;;;;;5120466;27;20455;-72
2021/01/31 10:31:23;;;;;;;10.83;7.10;;;;;;;;;;5120270;27;20452;-72
2021/01/31 10:33:54;;;;;;;13.10;6.70;;;;;;;;;;5120671;27;20843;-72
2021/01/31 10:36:26;;;;;;;10.90;5.83;;;;;;;;;;5120014;27;20902;-72
2021/01/31 10:38:54;;;;;;;13.10;6.60;;;;;;;;;;5119938;27;20450;-72
2021/01/31 10:41:21;;;;;;;12.57;7.33;;;;;;;;;;5118810;27;20778;-72
2021/01/31 10:43:58;;;;;;;10.50;6.00;;;;;;;;;;5119842;27;20439;-72
2021/01/31 10:46:26;;;;;;;15.40;7.60;;;;;;;;;;5119338;27;20459;-71
2021/01/31 10:48:53;;;;;;;18.63;11.97;;;;;;;;;;5119127;27;20443;-72
2021/01/31 10:51:20;;;;;;;10.53;6.70;;;;;;;;;;5118985;27;20462;-72
2021/01/31 10:53:48;;;;;;;15.33;10.27;;;;;;;;;;5118618;27;20443;-72
2021/01/31 10:56:16;;;;;;;20.47;10.13;;;;;;;;;;5108718;27;20459;-73
2021/01/31 10:58:45;;;;;;;11.60;6.33;;;;;;;;;;5099181;27;20938;-72
2021/01/31 11:01:12;;;;;;;12.20;6.10;;;;;;;;;;5099509;27;20519;-71
2021/01/31 11:03:40;;;;;;;9.98;6.70;;;;;;;;;;5099662;27;20440;-71
2021/01/31 11:06:07;;;;;;;12.80;6.80;;;;;;;;;;5098814;27;20616;-73
2021/01/31 11:08:34;;;;;;;10.80;6.23;;;;;;;;;;5099154;27;20463;-72
2021/01/31 11:11:02;;;;;;;8.30;7.23;;;;;;;;;;5099358;27;20463;-72
2021/01/31 11:13:29;;;;;;;14.37;6.60;;;;;;;;;;5096181;27;20458;-72
2021/01/31 11:15:56;;;;;;;14.67;9.40;;;;;;;;;;5097262;27;20467;-72
2021/01/31 11:18:24;;;;;;;14.30;8.80;;;;;;;;;;5098492;27;20517;-72
2021/01/31 11:20:51;;;;;;;11.90;6.63;;;;;;;;;;5097491;27;20487;-71
2021/01/31 11:23:19;;;;;;;8.43;5.30;;;;;;;;;;5099382;27;20446;-72
2021/01/31 11:25:48;;;;;;;10.00;5.70;;;;;;;;;;5097387;27;21259;-73
2021/01/31 11:28:17;;;;;;;9.30;6.20;;;;;;;;;;5098112;27;20452;-73
2021/01/31 11:30:44;;;;;;;9.40;6.17;;;;;;;;;;5097628;27;20464;-73
2021/01/31 11:33:16;;;;;;;7.80;5.30;;;;;;;;;;5097122;27;20467;-74
2021/01/31 11:35:44;;;;;;;10.63;6.63;;;;;;;;;;5097063;27;20464;-73
2021/01/31 11:38:11;;;;;;;9.73;5.67;;;;;;;;;;5098231;27;20452;-73
2021/01/31 11:40:38;;;;;;;10.03;5.40;;;;;;;;;;5097201;27;20495;-73
2021/01/31 11:43:05;;;;;;;9.07;4.97;;;;;;;;;;5098676;27;20456;-73
2021/01/31 11:45:33;;;;;;;7.43;5.50;;;;;;;;;;5098244;27;20884;-72
2021/01/31 11:48:01;;;;;;;9.90;6.30;;;;;;;;;;5099827;27;20452;-72
2021/01/31 11:50:31;;;;;;;10.80;6.10;;;;;;;;;;5098005;27;20452;-73
2021/01/31 11:53:12;;;;;;;8.63;5.50;;;;;;;;;;5097500;27;20625;-73
2021/01/31 11:55:46;;;;;;;8.13;4.23;;;;;;;;;;5099558;27;20466;-73
2021/01/31 11:58:37;;;;;;;8.67;5.60;;;;;;;;;;5099540;27;20459;-72
2021/01/31 12:01:07;;;;;;;8.03;4.50;;;;;;;;;;5097121;27;20479;-72
2021/01/31 12:03:37;;;;;;;11.30;5.50;;;;;;;;;;5097826;27;20457;-75
2021/01/31 12:06:05;;;;;;;6.70;4.17;;;;;;;;;;5099499;27;20773;-73
2021/01/31 12:08:33;;;;;;;7.77;4.63;;;;;;;;;;5098540;27;20458;-72
2021/01/31 12:11:00;;;;;;;8.97;4.60;;;;;;;;;;5099237;27;20479;-73
2021/01/31 12:13:27;;;;;;;7.10;4.20;;;;;;;;;;5098027;27;20444;-73
2021/01/31 12:15:54;;;;;;;8.03;5.00;;;;;;;;;;5097090;27;20448;-73
2021/01/31 12:18:22;;;;;;;7.57;5.03;;;;;;;;;;5097084;27;20506;-73
2021/01/31 12:20:49;;;;;;;7.00;4.07;;;;;;;;;;5098209;27;20488;-72
2021/01/31 12:23:17;;;;;;;9.50;5.40;;;;;;;;;;5098447;27;20456;-73
2021/01/31 12:25:44;;;;;;;11.67;5.20;;;;;;;;;;5097308;27;20464;-73
2021/01/31 12:28:12;;;;;;;6.80;4.40;;;;;;;;;;5100897;27;20931;-73
2021/01/31 12:30:45;;;;;;;10.13;5.47;;;;;;;;;;5117482;27;20455;-73
2021/01/31 12:33:21;;;;;;;8.80;6.10;;;;;;;;;;5118501;27;20431;-73
2021/01/31 12:35:52;;;;;;;10.10;5.23;;;;;;;;;;5118820;27;20572;-73
2021/01/31 12:38:19;;;;;;;8.57;5.63;;;;;;;;;;5117711;27;20913;-72
2021/01/31 12:40:54;;;;;;;11.20;6.40;;;;;;;;;;5116749;27;20930;-73
2021/01/31 12:43:38;;;;;;;10.27;6.50;;;;;;;;;;5116759;27;20458;-72
2021/01/31 12:46:13;;;;;;;10.40;6.57;;;;;;;;;;5115782;27;20738;-74
2021/01/31 12:48:45;;;;;;;10.70;7.30;;;;;;;;;;5117538;27;20512;-72
2021/01/31 12:57:30;;;;;;;9.00;5.60;;;;;;;;;;5098999;27;20487;-72
2021/01/31 13:03:01;;;;;;;9.80;6.20;;;;;;;;;;5116417;27;20875;-72
2021/01/31 13:05:35;;;;;;;14.60;6.67;;;;;;;;;;5114735;27;20474;-73
2021/01/31 13:08:04;;;;;;;8.10;5.07;;;;;;;;;;5109281;27;20885;-73
2021/01/31 13:10:38;;;;;;;7.63;4.53;;;;;;;;;;5119713;27;20482;-72
2021/01/31 13:13:26;;;;;;;7.27;5.60;;;;;;;;;;5116907;27;20462;-72
2021/01/31 13:16:17;;;;;;;9.10;5.30;;;;;;;;;;5116420;27;20869;-73
2021/01/31 13:18:48;;;;;;;10.13;5.50;;;;;;;;;;5117086;27;20554;-74
2021/01/31 13:21:32;;;;;;;9.60;5.60;;;;;;;;;;5116784;27;20475;-74
2021/01/31 13:24:02;;;;;;;8.20;5.37;;;;;;;;;;5115869;27;20452;-73
2021/01/31 13:26:49;;;;;;;9.40;6.13;;;;;;;;;;5119281;27;20852;-73
2021/01/31 13:29:20;;;;;;;8.67;5.63;;;;;;;;;;5115801;27;20448;-74
2021/01/31 13:31:55;;;;;;;7.63;4.67;;;;;;;;;;5117700;27;20645;-72
2021/01/31 13:34:31;;;;;;;10.80;6.67;;;;;;;;;;5116759;27;20467;-73
2021/01/31 13:37:01;;;;;;;13.00;6.50;;;;;;;;;;5115877;27;20454;-73
2021/01/31 13:42:52;;;;;;;13.20;6.10;;;;;;;;;;5088107;28;21038;-71
2021/01/31 13:48:35;;;;;;;10.37;6.47;;;;;;;;;;5131110;27;20461;-72
2021/01/31 13:51:08;;;;;;;11.37;5.17;;;;;;;;;;5134856;27;20451;-74
2021/01/31 13:53:51;;;;;;;14.50;7.67;;;;;;;;;;5118369;27;20460;-72
2021/01/31 13:56:22;;;;;;;8.10;5.47;;;;;;;;;;5130852;27;20566;-73
2021/01/31 13:58:51;;;;;;;8.30;4.50;;;;;;;;;;5111406;27;20521;-73
2021/01/31 14:01:24;;;;;;;8.80;5.57;;;;;;;;;;5103956;27;21058;-74
2021/01/31 14:03:52;;;;;;;13.23;8.23;;;;;;;;;;5124169;27;20451;-73
2021/01/31 14:06:26;;;;;;;9.33;5.53;;;;;;;;;;5117315;27;20459;-73
2021/01/31 14:09:09;;;;;;;9.77;5.73;;;;;;;;;;5100656;27;20462;-73
2021/01/31 14:12:02;;;;;;;10.63;5.53;;;;;;;;;;5108087;27;20475;-73
2021/01/31 14:14:39;;;;;;;9.37;4.90;;;;;;;;;;5094886;27;20447;-73
2021/01/31 14:17:08;;;;;;;8.40;5.03;;;;;;;;;;5100922;27;20481;-72
2021/01/31 14:19:53;;;;;;;14.80;8.20;;;;;;;;;;5100005;27;20450;-71
2021/01/31 14:22:24;;;;;;;13.87;6.90;;;;;;;;;;5099627;27;20575;-73
2021/01/31 14:27:59;;;;;;;8.70;5.37;;;;;;;;;;5106677;27;20451;-73
2021/01/31 14:30:30;;;;;;;11.33;6.43;;;;;;;;;;5118928;27;20520;-73
2021/01/31 14:33:27;;;;;;;9.10;5.93;;;;;;;;;;5119919;27;20700;-73
2021/01/31 14:36:26;;;;;;;7.63;5.43;;;;;;;;;;5119852;27;20462;-73
2021/01/31 14:41:52;;;;;;;8.83;6.30;;;;;;;;;;5053750;27;20492;-73
2021/01/31 14:47:24;;;;;;;10.40;5.53;;;;;;;;;;5129565;27;20504;-73
2021/01/31 14:49:59;;;;;;;8.47;5.37;;;;;;;;;;5113658;28;20456;-74
2021/01/31 14:52:55;;;;;;;8.90;5.70;;;;;;;;;;5104800;28;20456;-72
2021/01/31 14:55:25;;;;;;;9.67;5.90;;;;;;;;;;5114243;28;20463;-74
2021/01/31 14:57:53;;;;;;;10.80;5.27;;;;;;;;;;5112803;28;20460;-74
2021/01/31 15:00:21;;;;;;;10.47;5.90;;;;;;;;;;5113978;28;20736;-74
2021/01/31 15:02:50;;;;;;;8.93;5.50;;;;;;;;;;5114728;28;20498;-74
2021/01/31 15:05:30;;;;;;;9.23;5.43;;;;;;;;;;5113398;28;20763;-73
2021/01/31 15:07:58;;;;;;;12.50;7.47;;;;;;;;;;5114068;28;20460;-73
2021/01/31 15:10:53;;;;;;;11.03;6.77;;;;;;;;;;5113274;28;20451;-74
2021/01/31 15:13:20;;;;;;;10.37;6.37;;;;;;;;;;5113470;28;20458;-73
2021/01/31 15:15:49;;;;;;;12.70;7.23;;;;;;;;;;5113856;28;20450;-73
2021/01/31 15:21:31;;;;;;;10.67;7.10;;;;;;;;;;5099271;28;20933;-73
2021/01/31 15:24:03;;;;;;;14.03;7.47;;;;;;;;;;5112376;28;20448;-73
2021/01/31 15:26:36;;;;;;;15.77;7.80;;;;;;;;;;5113624;28;20479;-74